»·PEaware :: SWA2015 KPHX-KLAS

SWA2015 :: KPHX-KLAS

FLIGHT INFORMATION

Flight Status: Arrived
Operator:
Southwest Airlines
More flights by this operator :: More flights under this callsign
Pilot: Nick N. (361)
Aircraft: BOEING 737-800
(B738)
More flights by this aircraft type
Origin: KPHX Phoenix Sky Harbor Intl
United States
Destination: KLAS McCarran Intl
United States
More flights between these airports :: More routes between these airports
Route: ZEPER1 SISIE IGM TYSSN5
File this flight plan on PilotEdge
Remarks:
Altitude:
(Current/Filed)
34,000ft
Speed:
(Current/Filed)
420kts
Departed: 14-Mar-19 08:08 PM
Arrived: 14-Mar-19 08:54 PM
Distance/Time
Traveled:
222nm/0:46
Distance/Time
To Go:
Arrived

Flight Plot

Page will automatically refresh every two minutes.

Flight plan parsing failed; only flown route is shown


Map Options




Map Legend


Flown Route
Filed Route
Departure Airport
Arrival Airport
Navaid (VOR, NDB)
Fix

Horizontal Profiles

Position Reports

Time Latitude Longitude Heading Altitude Ground
Speed
14-Mar-19 19:39 33.433726 -111.996199 303 1142ft 0kts
14-Mar-19 19:40 33.433726 -111.996199 303 1142ft 0kts
14-Mar-19 19:41 33.433726 -111.996199 303 1142ft 0kts
14-Mar-19 19:42 33.433726 -111.996199 303 1142ft 0kts
14-Mar-19 19:43 33.433726 -111.996199 303 1142ft 0kts
14-Mar-19 19:44 33.433726 -111.996199 303 1142ft 0kts
14-Mar-19 19:45 33.433726 -111.996199 303 1142ft 0kts
14-Mar-19 19:46 33.433726 -111.996199 303 1142ft 0kts
14-Mar-19 19:47 33.433726 -111.996199 303 1142ft 0kts
14-Mar-19 19:48 33.433726 -111.996199 303 1142ft 0kts
14-Mar-19 19:49 33.433726 -111.996199 303 1142ft 0kts
14-Mar-19 19:50 33.433726 -111.996199 303 1142ft 0kts
14-Mar-19 19:51 33.433726 -111.996199 303 1142ft 0kts
14-Mar-19 19:52 33.433726 -111.996199 303 1142ft 0kts
14-Mar-19 19:53 33.433726 -111.996199 303 1142ft 0kts
14-Mar-19 19:54 33.433726 -111.996199 303 1142ft 0kts
14-Mar-19 19:55 33.433726 -111.996199 303 1142ft 0kts
14-Mar-19 19:56 33.433726 -111.996199 303 1142ft 0kts
14-Mar-19 19:57 33.433726 -111.996199 303 1142ft 0kts
14-Mar-19 19:58 33.433725 -111.996197 303 1142ft 0kts
14-Mar-19 19:59 33.433885 -111.995743 182 1142ft 0kts
14-Mar-19 20:00 33.433960 -111.995746 179 1141ft 0kts
14-Mar-19 20:01 33.433960 -111.995746 179 1141ft 0kts
14-Mar-19 20:02 33.433933 -111.995746 179 1141ft 1kts
14-Mar-19 20:03 33.432948 -111.995681 167 1141ft 3kts
14-Mar-19 20:04 33.432162 -111.995043 97 1142ft 5kts
14-Mar-19 20:05 33.432133 -111.993288 119 1142ft 0kts
14-Mar-19 20:06 33.431911 -111.993117 173 1142ft 4kts
14-Mar-19 20:07 33.431043 -112.005206 269 1142ft 131kts
14-Mar-19 20:08 33.430979 -112.060815 271 2906ft 176kts
14-Mar-19 20:09 33.433416 -112.122475 272 4434ft 205kts
14-Mar-19 20:10 33.457910 -112.190290 333 6318ft 248kts
14-Mar-19 20:11 33.526195 -112.196093 3 9079ft 253kts
14-Mar-19 20:12 33.604010 -112.202537 357 10534ft 310kts
14-Mar-19 20:13 33.690623 -112.225258 347 13191ft 325kts
14-Mar-19 20:14 33.778712 -112.253759 347 16187ft 333kts
14-Mar-19 20:15 33.869342 -112.283046 347 18967ft 342kts
14-Mar-19 20:16 33.962238 -112.313158 345 21473ft 351kts
14-Mar-19 20:17 34.052161 -112.363549 328 23698ft 363kts
14-Mar-19 20:18 34.132277 -112.439408 321 25766ft 372kts
14-Mar-19 20:19 34.213004 -112.520823 320 27627ft 381kts
14-Mar-19 20:20 34.295466 -112.604121 319 29253ft 391kts
14-Mar-19 20:21 34.379334 -112.689058 318 30754ft 400kts
14-Mar-19 20:22 34.464864 -112.775934 317 32363ft 404kts
14-Mar-19 20:23 34.550428 -112.863072 317 33845ft 406kts
14-Mar-19 20:24 34.636962 -112.956228 315 34228ft 428kts
14-Mar-19 20:25 34.724789 -113.052250 315 34229ft 432kts
14-Mar-19 20:26 34.813281 -113.149246 315 34238ft 431kts
14-Mar-19 20:27 34.902179 -113.246999 315 34245ft 426kts
14-Mar-19 20:28 34.982071 -113.348301 306 34171ft 412kts
14-Mar-19 20:29 35.042929 -113.462604 300 32422ft 400kts
14-Mar-19 20:30 35.098543 -113.582721 301 30080ft 411kts
14-Mar-19 20:31 35.154656 -113.703978 300 27824ft 426kts
14-Mar-19 20:32 35.213718 -113.832027 302 25468ft 435kts
14-Mar-19 20:33 35.288461 -113.949579 315 24267ft 440kts
14-Mar-19 20:34 35.379733 -114.045066 324 21501ft 430kts
14-Mar-19 20:35 35.469130 -114.128201 325 18704ft 377kts
14-Mar-19 20:36 35.550429 -114.203892 325 16462ft 363kts
14-Mar-19 20:37 35.627969 -114.276333 325 13848ft 340kts
14-Mar-19 20:38 35.703270 -114.346846 325 11987ft 323kts
14-Mar-19 20:39 35.775321 -114.399745 343 11946ft 297kts
14-Mar-19 20:40 35.852014 -114.434718 341 10942ft 289kts
14-Mar-19 20:41 35.926742 -114.469721 341 10281ft 273kts
14-Mar-19 20:42 35.992712 -114.500656 342 10012ft 239kts
14-Mar-19 20:43 36.042052 -114.554048 295 9612ft 246kts
14-Mar-19 20:44 36.057446 -114.636415 284 8546ft 244kts
14-Mar-19 20:45 36.070505 -114.711811 284 8280ft 205kts
14-Mar-19 20:46 36.073556 -114.781405 270 7028ft 198kts
14-Mar-19 20:47 36.073332 -114.852033 272 7028ft 205kts
14-Mar-19 20:48 36.073478 -114.921851 271 6082ft 201kts
14-Mar-19 20:49 36.073583 -114.988410 271 4390ft 179kts
14-Mar-19 20:50 36.073629 -115.046091 271 3454ft 166kts
14-Mar-19 20:51 36.073618 -115.101423 271 2624ft 159kts
14-Mar-19 20:52 36.073640 -115.147439 269 2189ft 53kts
14-Mar-19 20:53 36.074842 -115.155423 300 2188ft 9kts
14-Mar-19 20:54 36.077585 -115.158269 6 2188ft 9kts
14-Mar-19 20:55 36.078042 -115.154217 91 2188ft 14kts
14-Mar-19 20:56 36.080240 -115.151377 29 2188ft 12kts
14-Mar-19 20:57 36.081499 -115.148392 64 2188ft 5kts
14-Mar-19 20:58 36.081640 -115.148039 63 2188ft 0kts
14-Mar-19 20:59 36.081640 -115.148039 63 2188ft 0kts
14-Mar-19 21:00 36.081640 -115.148039 63 2188ft 0kts

Navigation Log

Ident Type
Flight plan parsing failed, navigation log unavailable